Trevorton, PA

4:52 AM EDT on July 19, 2019 (GMT -0400)
TONY .M. WEATHER | | Change Station

Elev 810 ft 40.78 °N, 76.68 °W | Updated 18 seconds ago

Mostly Cloudy
Mostly Cloudy
70.9 °F
Feels Like 70.9 °F
N
0
Wind Variable Wind from SSW
Gusts 0.0 mph

Today
High -- | Low -- °F
--% Chance of Precip.
Yesterday
High -- | Low -- °F
Precip. -- in
Pressure 29.92 in
Visibility 8.0 miles
Clouds Mostly Cloudy 400 ft
Dew Point 70 °F
Humidity 97%
Rainfall 0.00 in
Snow Depth Not available.
5:51 AM 8:34 PM
Waning Gibbous, 94% visible
SPECI KSEG 190831Z AUTO 00000KT 8SM BKN004 22/21 A2992 RMK AO2 CIG 002V007 T02170211
Pressure 29.92 in
Visibility 8.0 miles
Clouds Mostly Cloudy 400 ft
Dew Point 70 °F
Humidity 97%
Rainfall 0.00 in
Snow Depth Not available.
5:51 AM 8:34 PM
Waning Gibbous, 94% visible
SPECI KSEG 190831Z AUTO 00000KT 8SM BKN004 22/21 A2992 RMK AO2 CIG 002V007 T02170211

Get Your Daily Forecast Email!

Thanks for signing up!

Be on the lookout for a verification email in your inbox.

You'll start receiving severe weather alerts in your inbox..

×

10-Day Weather Forecast

Almanac

Astronomy

Jul. 19, 2019 Rise Set
Actual Time
Civil Twilight
Nautical Twilight
Astronomical Twilight
Moon
Length of Visible Light
Length of Day
Tomorrow will be .
, % of the Moon is Illuminated

Today's Extremes

State Highs State Lows

Community

WunderPhotos

Category 6

Welcome to Category 6. This is the collective home for Weather Underground's featured writeups by Dr. Jeff Masters (right), Bob Henson (left), Chris Burt, and other regular contributors.

Nearby

Air Quality

  Air Quality AQ Index Pollutant
Not available.

Snow Depth

Station Depth Elevation

Earthquake Activity

City Distance Mag. Time & Date
Minimum magnitude displayed is 2.5.

Coastal Water Temperatures

Place Temperature

Stations

Nearby Weather Stations

Station Location Temp. Windchill Dew Point Humidity Wind Precip. Elev Updated Type
                   

Watches & Warnings

Excessive Heat Warning, Heat Advisory
Issued: 4:43 AM EDT Jul. 19, 2019 – National Weather Service

... Excessive heat warning remains in effect from noon today to
8 PM EDT Saturday...
... Heat advisory remains in effect from 8 PM Saturday to 8 PM EDT
Sunday...

* heat index values... as high as 109 today, up to 113 on Saturday
and as high as 104 on Sunday.

* Timing... the highest values will be in the afternoons, but
overnight low temperatures will also be very warm and the air
oppressively muggy. Saturday will be the hottest day.

* Impacts... the excessive heat may quickly cause heat stress or
heat stroke.

Precautionary/preparedness actions...

Limit or reschedule strenuous outdoor activities. Find shade and
stay hydrated. Check up on the elderly, sick and those without
air conditioning. Never leave kids or pets unattended... look
before you lock.